createdAt,value
2018-05-18T00:00:19.489Z,8.30
2018-05-18T00:02:47.530Z,8.30
2018-05-18T00:05:15.575Z,8.30
2018-05-18T00:07:43.623Z,8.30
2018-05-18T00:10:11.671Z,8.30
2018-05-18T00:12:39.710Z,8.30
2018-05-18T00:15:07.774Z,8.30
2018-05-18T00:17:35.822Z,8.30
2018-05-18T00:20:03.947Z,8.30
2018-05-18T00:22:31.991Z,8.20
2018-05-18T00:25:00.119Z,8.30
2018-05-18T00:27:28.160Z,8.20
2018-05-18T00:29:56.291Z,8.20
2018-05-18T00:32:24.370Z,8.10
2018-05-18T00:34:52.459Z,8.10
2018-05-18T00:37:20.503Z,8.10
2018-05-18T00:39:48.538Z,8.10
2018-05-18T00:42:16.715Z,8.00
2018-05-18T00:44:44.798Z,8.10
2018-05-18T00:47:12.839Z,8.10
2018-05-18T00:49:40.877Z,8.00
2018-05-18T00:52:08.919Z,8.00
2018-05-18T00:54:36.968Z,7.90
2018-05-18T00:57:05.029Z,7.90
2018-05-18T00:59:33.043Z,7.90
2018-05-18T01:02:01.095Z,7.90
2018-05-18T01:04:29.130Z,7.90
2018-05-18T01:06:58.670Z,7.80
2018-05-18T01:09:26.719Z,7.80
2018-05-18T01:11:54.754Z,7.70
2018-05-18T01:14:22.798Z,7.70
2018-05-18T01:16:50.940Z,7.70
2018-05-18T01:19:18.978Z,7.70
2018-05-18T01:21:47.098Z,7.70
2018-05-18T01:24:15.184Z,7.60
2018-05-18T01:26:43.220Z,7.70
2018-05-18T01:29:11.258Z,7.70
2018-05-18T01:31:39.294Z,7.70
2018-05-18T01:34:07.430Z,7.70
2018-05-18T01:36:35.462Z,7.60
2018-05-18T01:39:03.503Z,7.60
2018-05-18T01:41:31.538Z,7.50
2018-05-18T01:44:00.361Z,7.50
2018-05-18T01:46:29.162Z,7.50
2018-05-18T01:48:58.082Z,7.50
2018-05-18T01:51:26.159Z,7.50
2018-05-18T01:53:54.199Z,7.50
2018-05-18T01:56:22.239Z,7.50
2018-05-18T01:58:50.333Z,7.50
2018-05-18T02:01:18.315Z,7.40
2018-05-18T02:03:47.126Z,7.30
2018-05-18T02:06:15.195Z,7.30
2018-05-18T02:08:43.242Z,7.40
2018-05-18T02:11:12.079Z,7.30
2018-05-18T02:13:40.159Z,7.30
2018-05-18T02:16:08.243Z,7.30
2018-05-18T02:18:36.286Z,7.30
2018-05-18T02:21:04.422Z,7.30
2018-05-18T02:23:32.463Z,7.20
2018-05-18T02:26:00.503Z,7.20
2018-05-18T02:28:28.550Z,7.20
2018-05-18T02:30:57.371Z,7.20
2018-05-18T02:33:25.459Z,7.20
2018-05-18T02:35:53.499Z,7.30
2018-05-18T02:38:21.543Z,7.20
2018-05-18T02:40:49.609Z,7.20
2018-05-18T02:43:17.691Z,7.20
2018-05-18T02:45:45.783Z,7.20
2018-05-18T02:48:13.867Z,7.20
2018-05-18T02:50:41.907Z,7.20
2018-05-18T02:53:09.959Z,7.20
2018-05-18T02:55:37.990Z,7.20
2018-05-18T02:58:06.819Z,7.20
2018-05-18T03:00:34.905Z,7.20
2018-05-18T03:03:02.939Z,7.10
2018-05-18T03:05:30.979Z,7.10
2018-05-18T03:07:59.059Z,7.00
2018-05-18T03:10:27.110Z,7.00
2018-05-18T03:12:55.910Z,7.00
2018-05-18T03:15:24.741Z,7.00
2018-05-18T03:17:52.777Z,7.00
2018-05-18T03:20:20.819Z,7.00
2018-05-18T03:22:48.975Z,7.00
2018-05-18T03:25:17.791Z,7.00
2018-05-18T03:27:46.601Z,7.10
2018-05-18T03:30:14.686Z,7.00
2018-05-18T03:32:42.826Z,7.10
2018-05-18T03:35:10.875Z,7.10
2018-05-18T03:37:38.938Z,7.10
2018-05-18T03:40:06.983Z,7.10
2018-05-18T03:42:35.019Z,7.10
2018-05-18T03:45:03.070Z,7.10
2018-05-18T03:47:34.366Z,7.10
2018-05-18T03:50:02.415Z,7.10
2018-05-18T03:52:31.238Z,7.10
2018-05-18T03:54:59.282Z,7.00
2018-05-18T03:57:27.317Z,7.00
2018-05-18T03:59:55.390Z,7.10
2018-05-18T04:02:41.048Z,7.10
2018-05-18T04:05:27.003Z,7.10
2018-05-18T04:08:12.918Z,7.10
2018-05-18T04:10:40.994Z,7.10
2018-05-18T04:13:09.034Z,7.00
2018-05-18T04:15:37.082Z,7.10
2018-05-18T04:18:05.128Z,7.00
2018-05-18T04:20:33.930Z,7.00
2018-05-18T04:23:02.739Z,7.00
2018-05-18T04:25:30.874Z,7.00
2018-05-18T04:27:58.911Z,7.00
2018-05-18T04:30:27.007Z,7.00
2018-05-18T04:32:55.030Z,7.10
2018-05-18T04:35:23.166Z,7.10
2018-05-18T04:37:51.260Z,7.20
2018-05-18T04:40:19.311Z,7.20
2018-05-18T04:42:47.440Z,7.30
2018-05-18T04:45:15.506Z,7.30
2018-05-18T04:47:43.547Z,7.40
2018-05-18T04:50:11.600Z,7.40
2018-05-18T04:52:39.638Z,7.50
2018-05-18T04:55:08.445Z,7.60
2018-05-18T04:57:37.275Z,7.60
2018-05-18T05:00:06.142Z,7.70
2018-05-18T05:02:34.951Z,7.70
2018-05-18T05:05:03.807Z,7.80
2018-05-18T05:07:31.970Z,7.80
2018-05-18T05:10:00.022Z,7.90
2018-05-18T05:12:28.859Z,8.10
2018-05-18T05:14:57.651Z,8.10
2018-05-18T05:17:25.695Z,8.10
2018-05-18T05:19:53.739Z,8.20
2018-05-18T05:22:21.787Z,8.30
2018-05-18T05:24:50.602Z,8.50
2018-05-18T05:27:18.650Z,8.50
2018-05-18T05:29:46.690Z,8.60
2018-05-18T05:32:14.742Z,8.70
2018-05-18T05:34:42.782Z,8.80
2018-05-18T05:37:10.826Z,8.90
2018-05-18T05:39:38.874Z,9.00
2018-05-18T05:42:06.986Z,9.10
2018-05-18T05:44:35.034Z,9.20
2018-05-18T05:47:04.600Z,9.40
2018-05-18T05:49:33.099Z,9.40
2018-05-18T05:52:01.147Z,9.60
2018-05-18T05:54:29.961Z,9.90
2018-05-18T05:56:58.879Z,10.10
2018-05-18T05:59:26.969Z,10.10
2018-05-18T06:01:55.786Z,10.40
2018-05-18T06:04:23.863Z,10.40
2018-05-18T06:06:51.944Z,10.50
2018-05-18T06:09:20.025Z,10.60
2018-05-18T06:11:48.112Z,10.70
2018-05-18T06:14:16.158Z,10.80
2018-05-18T06:16:44.283Z,10.90
2018-05-18T06:19:12.367Z,10.90
2018-05-18T06:21:40.454Z,11.10
2018-05-18T06:24:08.498Z,11.10
2018-05-18T06:26:37.339Z,11.40
2018-05-18T06:29:05.387Z,11.30
2018-05-18T06:31:34.211Z,11.60
2018-05-18T06:34:03.027Z,11.70
2018-05-18T06:36:31.115Z,11.70
2018-05-18T06:38:59.157Z,11.90
2018-05-18T06:41:27.285Z,11.90
2018-05-18T06:43:55.328Z,11.80
2018-05-18T06:46:23.451Z,11.70
2018-05-18T06:48:51.534Z,11.80
2018-05-18T06:51:19.579Z,11.90
2018-05-18T06:53:47.634Z,12.00
2018-05-18T06:56:15.691Z,12.00
2018-05-18T06:58:43.778Z,12.10
2018-05-18T07:01:12.563Z,12.50
2018-05-18T07:03:40.619Z,12.40
2018-05-18T07:06:08.670Z,12.80
2018-05-18T07:08:36.819Z,13.10
2018-05-18T07:11:04.914Z,13.30
2018-05-18T07:13:33.221Z,13.70
2018-05-18T07:16:01.277Z,14.20
2018-05-18T07:18:29.330Z,14.40
2018-05-18T07:20:57.378Z,14.60
2018-05-18T07:23:25.539Z,14.80
2018-05-18T07:25:53.587Z,14.90
2018-05-18T07:28:22.413Z,15.20
2018-05-18T07:30:50.459Z,15.20
2018-05-18T07:33:20.127Z,15.70
2018-05-18T07:35:48.183Z,15.70
2018-05-18T07:38:16.239Z,15.80
2018-05-18T07:40:44.296Z,16.10
2018-05-18T07:43:12.354Z,16.40
2018-05-18T07:45:40.448Z,16.60
2018-05-18T07:48:08.534Z,16.50
2018-05-18T07:50:36.590Z,16.90
2018-05-18T07:53:04.639Z,16.90
2018-05-18T07:55:32.794Z,17.20
2018-05-18T07:58:00.873Z,17.20
2018-05-18T08:00:28.919Z,17.20
2018-05-18T08:02:57.160Z,17.20
2018-05-18T08:05:25.237Z,17.20
2018-05-18T08:07:53.334Z,17.20
2018-05-18T08:10:21.409Z,16.80
2018-05-18T08:12:49.485Z,16.70
2018-05-18T08:15:17.537Z,16.60
2018-05-18T08:17:47.195Z,16.30
2018-05-18T08:20:15.286Z,16.30
2018-05-18T08:22:43.374Z,16.10
2018-05-18T08:25:11.447Z,15.90
2018-05-18T08:27:39.542Z,15.90
2018-05-18T08:30:08.318Z,15.60
2018-05-18T08:32:37.139Z,15.70
2018-05-18T08:35:05.322Z,15.60
2018-05-18T08:37:33.391Z,15.80
2018-05-18T08:40:02.216Z,15.90
2018-05-18T08:42:30.300Z,15.90
2018-05-18T08:44:58.363Z,15.90
2018-05-18T08:47:27.180Z,16.10
2018-05-18T08:49:55.240Z,16.10
2018-05-18T08:52:23.296Z,16.20
2018-05-18T08:54:51.742Z,16.30
2018-05-18T08:57:20.283Z,16.30
2018-05-18T08:59:48.337Z,16.50
2018-05-18T09:02:16.416Z,16.50
2018-05-18T09:04:44.478Z,16.60
2018-05-18T09:07:13.303Z,17.00
2018-05-18T09:09:41.358Z,17.00
2018-05-18T09:12:10.170Z,17.20
2018-05-18T09:14:38.991Z,17.40
2018-05-18T09:17:07.070Z,17.40
2018-05-18T09:19:35.218Z,17.60
2018-05-18T09:22:03.343Z,17.90
2018-05-18T09:24:31.431Z,17.80
2018-05-18T09:26:59.477Z,17.90
2018-05-18T09:29:29.107Z,18.10
2018-05-18T09:31:57.086Z,18.10
2018-05-18T09:34:25.139Z,18.20
2018-05-18T09:36:53.187Z,18.30
2018-05-18T09:39:21.275Z,18.10
2018-05-18T09:41:49.355Z,18.10
2018-05-18T09:44:17.414Z,18.00
2018-05-18T09:46:46.230Z,17.90
2018-05-18T09:49:15.147Z,17.60
2018-05-18T09:51:43.239Z,17.70
2018-05-18T09:54:11.314Z,17.90
2018-05-18T09:56:40.122Z,18.20
2018-05-18T09:59:08.203Z,18.20
2018-05-18T10:01:36.267Z,18.20
2018-05-18T10:04:05.079Z,18.40
2018-05-18T10:06:33.135Z,18.40
2018-05-18T10:09:01.267Z,18.60
2018-05-18T10:11:29.348Z,18.60
2018-05-18T10:13:57.434Z,18.50
2018-05-18T10:16:25.514Z,18.60
2018-05-18T10:18:53.566Z,18.70
2018-05-18T10:21:22.400Z,18.80
2018-05-18T10:23:50.491Z,18.70
2018-05-18T10:26:18.575Z,18.80
2018-05-18T10:28:46.626Z,18.80
2018-05-18T10:31:16.193Z,18.70
2018-05-18T10:33:44.249Z,18.70
2018-05-18T10:36:13.067Z,18.60
2018-05-18T10:38:41.148Z,18.60
2018-05-18T10:41:09.240Z,18.60
2018-05-18T10:43:37.287Z,18.80
2018-05-18T10:46:05.407Z,18.90
2018-05-18T10:48:34.198Z,18.80
2018-05-18T10:51:02.263Z,18.80
2018-05-18T10:53:31.079Z,18.90
2018-05-18T10:55:59.133Z,18.90
2018-05-18T10:58:27.198Z,19.10
2018-05-18T11:00:55.346Z,19.10
2018-05-18T11:03:23.394Z,19.30
2018-05-18T11:05:51.525Z,19.30
2018-05-18T11:08:19.582Z,19.30
2018-05-18T11:10:48.403Z,19.30
2018-05-18T11:13:16.454Z,19.30
2018-05-18T11:15:45.273Z,19.30
2018-05-18T11:18:14.194Z,19.20
2018-05-18T11:20:42.249Z,19.20
2018-05-18T11:23:11.082Z,19.10
2018-05-18T11:25:39.186Z,19.10
2018-05-18T11:28:07.235Z,19.10
2018-05-18T11:30:36.056Z,18.80
2018-05-18T11:33:04.169Z,18.80
2018-05-18T11:35:32.154Z,18.80
2018-05-18T11:38:00.207Z,19.10
2018-05-18T11:40:28.294Z,19.20
2018-05-18T11:42:56.342Z,19.20
2018-05-18T11:45:24.398Z,19.20
2018-05-18T11:47:52.544Z,19.20
2018-05-18T11:50:20.605Z,19.10
2018-05-18T11:52:49.430Z,19.20
2018-05-18T11:55:17.519Z,19.20
2018-05-18T11:57:45.568Z,19.30
2018-05-18T12:00:14.947Z,19.30
2018-05-18T12:02:43.102Z,19.30
2018-05-18T12:05:11.186Z,19.40
2018-05-18T12:07:39.246Z,19.50
2018-05-18T12:10:08.062Z,19.80
2018-05-18T12:12:36.885Z,19.80
2018-05-18T12:15:04.936Z,19.70
2018-05-18T12:17:33.763Z,19.90
2018-05-18T12:20:01.811Z,19.80
2018-05-18T12:22:29.957Z,19.90
2018-05-18T12:24:58.018Z,19.60
2018-05-18T12:27:26.102Z,19.70
2018-05-18T12:29:54.187Z,19.60
2018-05-18T12:32:22.243Z,19.70
2018-05-18T12:34:50.363Z,19.80
2018-05-18T12:37:18.453Z,19.80
2018-05-18T12:39:46.503Z,19.80
2018-05-18T12:42:15.434Z,20.10
2018-05-18T12:44:43.570Z,20.10
2018-05-18T12:47:11.603Z,20.10
2018-05-18T12:49:39.662Z,20.00
2018-05-18T12:52:08.470Z,20.00
2018-05-18T12:54:37.293Z,20.00
2018-05-18T12:57:05.378Z,20.00
2018-05-18T12:59:33.501Z,20.20
2018-05-18T13:02:02.262Z,20.20
2018-05-18T13:04:30.314Z,20.20
2018-05-18T13:06:58.374Z,20.40
2018-05-18T13:09:26.523Z,20.30
2018-05-18T13:11:54.608Z,20.10
2018-05-18T13:14:22.662Z,20.10
2018-05-18T13:16:51.482Z,20.10
2018-05-18T13:19:19.530Z,20.20
2018-05-18T13:21:47.585Z,20.40
2018-05-18T13:24:15.631Z,20.70
2018-05-18T13:26:43.685Z,20.50
2018-05-18T13:29:11.789Z,20.40
2018-05-18T13:31:39.902Z,20.20
2018-05-18T13:34:07.958Z,20.10
2018-05-18T13:36:36.787Z,20.10
2018-05-18T13:39:05.804Z,20.10
2018-05-18T13:41:33.851Z,19.80
2018-05-18T13:44:02.675Z,20.20
2018-05-18T13:46:30.723Z,20.20
2018-05-18T13:48:58.850Z,20.30
2018-05-18T13:51:26.893Z,20.30
2018-05-18T13:53:54.948Z,20.30
2018-05-18T13:56:22.993Z,20.40
2018-05-18T13:58:51.045Z,20.40
2018-05-18T14:01:19.096Z,20.40
2018-05-18T14:03:47.174Z,20.20
2018-05-18T14:06:15.226Z,20.20
2018-05-18T14:08:44.151Z,19.90
2018-05-18T14:11:12.199Z,19.90
2018-05-18T14:13:41.132Z,19.70
2018-05-18T14:16:09.177Z,19.70
2018-05-18T14:18:38.003Z,19.80
2018-05-18T14:21:06.819Z,19.90
2018-05-18T14:23:34.875Z,19.90
2018-05-18T14:26:02.923Z,19.90
2018-05-18T14:28:31.076Z,20.10
2018-05-18T14:30:59.167Z,20.20
2018-05-18T14:33:27.214Z,20.10
2018-05-18T14:35:56.051Z,20.20
2018-05-18T14:38:24.136Z,20.10
2018-05-18T14:40:52.177Z,20.10
2018-05-18T14:43:20.238Z,20.20
2018-05-18T14:45:48.391Z,20.40
2018-05-18T14:48:16.479Z,20.50
2018-05-18T14:50:44.564Z,20.50
2018-05-18T14:53:12.648Z,20.40
2018-05-18T14:55:40.771Z,20.30
2018-05-18T14:58:08.747Z,20.30
2018-05-18T15:00:36.802Z,20.40
2018-05-18T15:03:04.852Z,20.30
2018-05-18T15:05:32.911Z,20.20
2018-05-18T15:08:01.055Z,20.10
2018-05-18T15:10:29.142Z,20.00
2018-05-18T15:12:57.195Z,20.00
2018-05-18T15:15:26.130Z,20.10
2018-05-18T15:17:54.214Z,20.00
2018-05-18T15:20:22.272Z,20.00
2018-05-18T15:22:51.085Z,20.10
2018-05-18T15:25:19.996Z,20.10
2018-05-18T15:27:48.910Z,19.90
2018-05-18T15:30:16.999Z,19.90
2018-05-18T15:32:45.093Z,20.10
2018-05-18T15:35:13.267Z,20.10
2018-05-18T15:37:41.363Z,19.90
2018-05-18T15:40:09.452Z,20.10
2018-05-18T15:42:38.349Z,20.30
2018-05-18T15:45:06.386Z,20.30
2018-05-18T15:47:35.231Z,20.30
2018-05-18T15:50:03.288Z,20.20
2018-05-18T15:52:32.117Z,20.20
2018-05-18T15:55:00.201Z,20.10
2018-05-18T15:57:28.277Z,20.10
2018-05-18T15:59:57.088Z,20.10
2018-05-18T16:02:25.139Z,20.10
2018-05-18T16:04:53.963Z,20.00
2018-05-18T16:07:22.019Z,20.00
2018-05-18T16:09:50.075Z,20.00
2018-05-18T16:12:18.226Z,20.10
2018-05-18T16:14:46.291Z,20.20
2018-05-18T16:17:15.122Z,20.10
2018-05-18T16:19:43.298Z,20.10
2018-05-18T16:22:11.386Z,20.00
2018-05-18T16:24:39.438Z,20.00
2018-05-18T16:27:07.565Z,20.00
2018-05-18T16:29:35.618Z,20.10
2018-05-18T16:32:04.449Z,20.30
2018-05-18T16:34:32.511Z,20.20
2018-05-18T16:37:01.338Z,20.30
2018-05-18T16:39:29.394Z,20.30
2018-05-18T16:41:58.206Z,20.50
2018-05-18T16:44:27.130Z,20.70
2018-05-18T16:46:55.191Z,20.70
2018-05-18T16:49:24.010Z,21.00
2018-05-18T16:51:52.066Z,20.90
2018-05-18T16:54:20.883Z,20.90
2018-05-18T16:56:49.798Z,20.70
2018-05-18T16:59:17.873Z,20.70
2018-05-18T17:01:46.011Z,20.50
2018-05-18T17:04:14.163Z,20.50
2018-05-18T17:06:42.227Z,20.50
2018-05-18T17:09:11.044Z,20.10
2018-05-18T17:11:39.098Z,20.00
2018-05-18T17:14:07.915Z,19.50
2018-05-18T17:16:36.723Z,19.00
2018-05-18T17:19:04.775Z,18.90
2018-05-18T17:21:32.907Z,18.50
2018-05-18T17:24:00.950Z,18.30
2018-05-18T17:26:29.355Z,17.80
2018-05-18T17:28:57.159Z,17.50
2018-05-18T17:31:25.246Z,17.10
2018-05-18T17:33:53.282Z,16.90
2018-05-18T17:36:21.428Z,16.50
2018-05-18T17:38:49.503Z,16.30
2018-05-18T17:41:17.587Z,16.00
2018-05-18T17:43:45.640Z,15.80
2018-05-18T17:46:14.469Z,15.50
2018-05-18T17:48:42.505Z,15.50
2018-05-18T17:51:10.643Z,15.40
2018-05-18T17:53:38.800Z,15.20
2018-05-18T17:56:06.783Z,15.10
2018-05-18T17:58:35.595Z,14.90
2018-05-18T18:01:04.415Z,14.80
2018-05-18T18:03:32.498Z,14.80
2018-05-18T18:06:00.587Z,14.70
2018-05-18T18:08:28.643Z,14.60
2018-05-18T18:10:57.463Z,14.40
2018-05-18T18:13:26.274Z,14.30
2018-05-18T18:15:54.370Z,14.20
2018-05-18T18:18:22.451Z,14.20
2018-05-18T18:20:51.350Z,14.10
2018-05-18T18:23:19.394Z,13.90
2018-05-18T18:25:47.518Z,13.60
2018-05-18T18:28:15.611Z,13.40
2018-05-18T18:30:43.697Z,13.30
2018-05-18T18:33:11.738Z,13.10
2018-05-18T18:35:39.859Z,12.90
2018-05-18T18:38:07.926Z,12.80
2018-05-18T18:40:36.727Z,12.60
2018-05-18T18:43:05.642Z,12.50
2018-05-18T18:45:33.690Z,12.50
2018-05-18T18:48:01.826Z,12.40
2018-05-18T18:50:29.875Z,12.30
2018-05-18T18:52:57.933Z,12.10
2018-05-18T18:55:25.974Z,12.00
2018-05-18T18:57:54.060Z,12.00
2018-05-18T19:00:22.142Z,11.90
2018-05-18T19:02:50.190Z,11.70
2018-05-18T19:05:18.315Z,11.70
2018-05-18T19:07:46.400Z,11.60
2018-05-18T19:10:14.456Z,11.60
2018-05-18T19:12:43.299Z,11.30
2018-05-18T19:15:11.376Z,11.30
2018-05-18T19:17:39.455Z,11.20
2018-05-18T19:20:07.560Z,11.10
2018-05-18T19:22:35.615Z,11.10
2018-05-18T19:25:04.429Z,11.10
2018-05-18T19:27:32.486Z,11.10
2018-05-18T19:30:01.295Z,11.20
2018-05-18T19:32:30.114Z,11.20
2018-05-18T19:34:58.173Z,11.20
2018-05-18T19:37:26.286Z,11.20
2018-05-18T19:39:54.375Z,11.20
2018-05-18T19:42:22.467Z,11.20
2018-05-18T19:44:50.514Z,11.20
2018-05-18T19:47:19.348Z,11.20
2018-05-18T19:49:47.394Z,11.20
2018-05-18T19:52:15.528Z,11.20
2018-05-18T19:54:43.575Z,11.10
2018-05-18T19:57:12.444Z,11.00
2018-05-18T19:59:40.493Z,11.00
2018-05-18T20:02:08.554Z,11.00
2018-05-18T20:04:37.367Z,11.00
2018-05-18T20:07:05.550Z,11.00
2018-05-18T20:09:34.368Z,11.00
2018-05-18T20:12:02.468Z,11.00
2018-05-18T20:14:30.502Z,11.00
2018-05-18T20:16:58.623Z,11.10
2018-05-18T20:19:26.682Z,11.10
2018-05-18T20:21:55.670Z,11.20
2018-05-18T20:24:23.702Z,11.20
2018-05-18T20:26:51.755Z,11.10
2018-05-18T20:29:20.578Z,11.20
2018-05-18T20:31:48.652Z,11.10
2018-05-18T20:34:17.477Z,11.20
2018-05-18T20:36:45.558Z,11.10
2018-05-18T20:39:13.638Z,11.20
2018-05-18T20:41:41.688Z,11.10
2018-05-18T20:44:09.751Z,11.10
2018-05-18T20:46:37.806Z,11.10
2018-05-18T20:49:05.879Z,11.10
2018-05-18T20:51:33.926Z,11.10
2018-05-18T20:54:02.051Z,11.10
2018-05-18T20:56:30.127Z,11.10
2018-05-18T20:58:58.188Z,11.10
2018-05-18T21:01:27.014Z,11.00
2018-05-18T21:03:55.071Z,11.00
2018-05-18T21:06:23.194Z,10.90
2018-05-18T21:08:51.250Z,10.90
2018-05-18T21:11:20.083Z,10.90
2018-05-18T21:13:48.141Z,10.90
2018-05-18T21:16:16.963Z,10.80
2018-05-18T21:18:45.028Z,10.90
2018-05-18T21:21:13.838Z,10.80
2018-05-18T21:23:41.894Z,10.80
2018-05-18T21:26:09.949Z,10.80
2018-05-18T21:28:38.005Z,10.80
2018-05-18T21:31:06.050Z,10.80
2018-05-18T21:33:34.871Z,10.70
2018-05-18T21:36:03.692Z,10.70
2018-05-18T21:38:31.738Z,10.60
2018-05-18T21:40:59.792Z,10.60
2018-05-18T21:43:27.948Z,10.50
2018-05-18T21:45:56.008Z,10.40
2018-05-18T21:48:24.829Z,10.40
2018-05-18T21:50:52.878Z,10.40
2018-05-18T21:53:20.950Z,10.40
2018-05-18T21:55:48.996Z,10.40
2018-05-18T21:58:17.070Z,10.40
2018-05-18T22:00:45.110Z,10.30
2018-05-18T22:03:13.169Z,10.30
2018-05-18T22:05:41.247Z,10.20
2018-05-18T22:08:09.302Z,10.10
2018-05-18T22:10:37.390Z,10.10
2018-05-18T22:13:05.538Z,10.00
2018-05-18T22:15:33.661Z,10.00
2018-05-18T22:18:01.713Z,9.90
2018-05-18T22:20:29.766Z,9.80
2018-05-18T22:22:57.815Z,9.70
2018-05-18T22:25:25.912Z,9.70
2018-05-18T22:27:54.141Z,9.70
2018-05-18T22:30:22.958Z,9.60
2018-05-18T22:32:51.087Z,9.60
2018-05-18T22:35:19.166Z,9.60
2018-05-18T22:37:47.206Z,9.50
2018-05-18T22:40:16.764Z,9.40
2018-05-18T22:42:44.859Z,9.40
2018-05-18T22:45:12.933Z,9.40
2018-05-18T22:47:40.980Z,9.40
2018-05-18T22:50:09.823Z,9.40
2018-05-18T22:52:37.867Z,9.30
2018-05-18T22:55:05.915Z,9.30
2018-05-18T22:57:33.981Z,9.30
2018-05-18T23:00:02.026Z,9.30
2018-05-18T23:02:30.070Z,9.20
2018-05-18T23:04:58.126Z,9.10
2018-05-18T23:07:26.175Z,9.20
2018-05-18T23:09:54.292Z,9.20
2018-05-18T23:12:22.383Z,9.20
2018-05-18T23:14:50.472Z,9.20
2018-05-18T23:17:18.506Z,9.10
2018-05-18T23:19:46.639Z,9.10
2018-05-18T23:22:14.685Z,9.10
2018-05-18T23:24:44.347Z,9.00
2018-05-18T23:27:12.427Z,9.00
2018-05-18T23:29:40.476Z,9.00
2018-05-18T23:32:10.048Z,8.90
2018-05-18T23:34:38.119Z,8.90
2018-05-18T23:37:06.159Z,8.90
2018-05-18T23:39:34.211Z,8.90
2018-05-18T23:42:02.254Z,8.90
2018-05-18T23:44:31.058Z,8.90
2018-05-18T23:46:59.973Z,8.90
2018-05-18T23:49:28.062Z,8.90
2018-05-18T23:51:56.105Z,8.80
2018-05-18T23:54:24.146Z,8.80
2018-05-18T23:56:52.227Z,8.80
2018-05-18T23:59:20.266Z,8.70
